Aviation Digital Data Service (ADDS)

Output produced by METARs form (1204 UTC 23 August 2017)
found at http://aviationweather.gov/adds/metars/
 
KPWM 231135Z 2312/2412 20005KT 6SM BR BKN004 
     FM231230 23009KT P6SM SCT005 SCT250 
     FM231700 27012G19KT P6SM FEW250 
     FM240000 25004KT P6SM SKC